Time;durP1;ratioP1;P1;durP2;ratioP2;P2;SDS_P1;SDS_P2;PMS_P1;PMS_P2;Temp;Humidity;BMP_temperature;BMP_pressure;BME280_temperature;BME280_humidity;BME280_pressure;Samples;Min_cycle;Max_cycle;Signal;HPM_P1;HPM_P2
2024/01/01 00:01:07;;;;;;;160.57;105.57;;;7.20;99.90;;;;;;5153262;27;20396;-78
2024/01/01 00:03:32;;;;;;;155.73;104.45;;;7.20;99.90;;;;;;5145515;27;20039;-78
2024/01/01 00:05:58;;;;;;;154.02;100.20;;;7.20;99.90;;;;;;5155098;27;20035;-79
2024/01/01 00:08:27;;;;;;;182.25;122.22;;;7.10;99.90;;;;;;5143213;27;20122;-80
2024/01/01 00:10:56;;;;;;;;;;;7.20;99.90;;;;;;5165292;27;20382;-80
2024/01/01 00:13:24;;;;;;;198.70;127.05;;;7.20;99.90;;;;;;5141861;27;19919;-79
2024/01/01 00:15:50;;;;;;;164.45;102.20;;;7.20;99.90;;;;;;5146749;27;20047;-80
2024/01/01 00:18:16;;;;;;;151.55;99.60;;;7.10;99.90;;;;;;5136113;27;20129;-82
2024/01/01 00:20:42;;;;;;;163.75;106.50;;;7.10;99.90;;;;;;5133847;27;20121;-82
2024/01/01 00:23:07;;;;;;;156.07;100.13;;;7.20;99.90;;;;;;5152877;27;20093;-82
2024/01/01 00:25:36;;;;;;;177.05;109.55;;;7.10;99.90;;;;;;5155313;27;20037;-82
2024/01/01 00:28:04;;;;;;;172.55;106.10;;;7.10;99.90;;;;;;5131364;27;20139;-80
2024/01/01 00:30:30;;;;;;;;;;;7.00;99.90;;;;;;5128350;27;20118;-82
2024/01/01 00:33:01;;;;;;;118.25;75.43;;;7.10;99.90;;;;;;5139250;27;19926;-82
2024/01/01 00:35:27;;;;;;;90.95;55.97;;;7.10;99.90;;;;;;5149652;27;20043;-82
2024/01/01 00:37:52;;;;;;;76.63;47.60;;;7.40;99.90;;;;;;5137332;27;20046;-81
2024/01/01 00:40:18;;;;;;;82.15;49.47;;;7.00;99.90;;;;;;5120728;27;20043;-84
2024/01/01 00:42:47;;;;;;;78.38;45.33;;;7.10;99.90;;;;;;5153031;27;20051;-82
2024/01/01 00:45:12;;;;;;;;;;;7.00;99.90;;;;;;5153778;27;20043;-81
2024/01/01 00:47:38;;;;;;;99.82;57.30;;;7.10;99.90;;;;;;5155258;27;19929;-82
2024/01/01 00:50:04;;;;;;;120.40;76.60;;;7.00;99.90;;;;;;5156583;27;20043;-80
2024/01/01 00:52:30;;;;;;;96.88;61.20;;;6.30;99.90;;;;;;5152616;27;20078;-82
2024/01/01 00:55:00;;;;;;;85.05;52.47;;;7.70;99.90;;;;;;5155465;27;20043;-82
2024/01/01 00:57:26;;;;;;;74.72;44.15;;;7.10;99.90;;;;;;5154124;27;20045;-82
2024/01/01 00:59:52;;;;;;;71.32;44.25;;;7.10;99.90;;;;;;5149863;27;20042;-82
2024/01/01 01:02:19;;;;;;;70.18;41.67;;;7.00;99.90;;;;;;5177454;27;20046;-83
2024/01/01 01:04:46;;;;;;;80.45;48.60;;;8.20;99.90;;;;;;5152673;27;20055;-83
2024/01/01 01:07:13;;;;;;;74.78;44.03;;;7.50;99.90;;;;;;5151416;27;20047;-82
2024/01/01 01:09:39;;;;;;;71.68;42.30;;;7.10;99.90;;;;;;5152483;27;20481;-82
2024/01/01 01:12:07;;;;;;;78.05;44.97;;;7.00;99.90;;;;;;5156071;27;20098;-82
2024/01/01 01:14:33;;;;;;;82.68;47.55;;;7.00;99.90;;;;;;5137527;27;20438;-82
2024/01/01 01:16:59;;;;;;;80.70;49.38;;;7.10;99.90;;;;;;5149107;27;20042;-81
2024/01/01 01:19:24;;;;;;;80.57;47.38;;;7.40;99.90;;;;;;5149230;27;20045;-82
2024/01/01 01:21:50;;;;;;;90.55;48.75;;;7.70;99.90;;;;;;5126949;27;20042;-80
2024/01/01 01:24:16;;;;;;;71.57;43.42;;;6.90;99.90;;;;;;5126202;27;20098;-81
2024/01/01 01:26:42;;;;;;;67.03;42.17;;;7.00;99.90;;;;;;5120344;27;20035;-80
2024/01/01 01:29:09;;;;;;;76.80;45.10;;;7.00;99.90;;;;;;5158247;27;20034;-79
2024/01/01 01:31:35;;;;;;;74.90;43.90;;;7.00;99.90;;;;;;5142364;27;20142;-79
2024/01/01 01:34:01;;;;;;;73.13;46.67;;;7.00;99.90;;;;;;5144164;27;20038;-79
2024/01/01 01:36:27;;;;;;;73.47;44.67;;;7.10;99.90;;;;;;5151146;27;20404;-79
2024/01/01 01:38:52;;;;;;;70.82;40.55;;;7.00;99.90;;;;;;5121847;27;20093;-79
2024/01/01 01:41:18;;;;;;;59.50;37.20;;;7.00;99.90;;;;;;5104982;27;20503;-78
2024/01/01 01:43:44;;;;;;;59.28;33.28;;;7.00;99.90;;;;;;5139308;27;20051;-80
2024/01/01 01:46:11;;;;;;;66.25;37.45;;;7.00;99.90;;;;;;5139450;27;20054;-78
2024/01/01 01:48:40;;;;;;;58.20;35.70;;;7.00;99.90;;;;;;5145860;27;20536;-77
2024/01/01 01:51:06;;;;;;;70.80;42.60;;;7.00;99.90;;;;;;5127971;27;20055;-79
2024/01/01 01:53:32;;;;;;;63.50;38.58;;;7.00;99.90;;;;;;5132784;27;20047;-79
2024/01/01 01:56:02;;;;;;;65.65;36.58;;;7.00;99.90;;;;;;5142593;27;20043;-79
2024/01/01 01:58:28;;;;;;;53.40;32.78;;;7.00;99.90;;;;;;5124753;27;20046;-78
2024/01/01 02:00:54;;;;;;;62.22;36.70;;;7.00;99.90;;;;;;5131922;27;20042;-78
2024/01/01 02:03:21;;;;;;;51.95;34.70;;;7.10;99.90;;;;;;5148807;27;20074;-77
2024/01/01 02:05:50;;;;;;;55.33;31.73;;;7.10;99.90;;;;;;5165973;27;20038;-78
2024/01/01 02:08:16;;;;;;;54.47;31.98;;;7.10;99.90;;;;;;5166182;27;20046;-77
2024/01/01 02:10:42;;;;;;;54.10;33.80;;;7.10;99.90;;;;;;5145644;27;20077;-78
2024/01/01 02:13:25;;;;;;;46.22;27.58;;;7.10;99.90;;;;;;5116015;27;20050;-78
2024/01/01 02:15:50;;;;;;;48.88;29.23;;;7.10;99.90;;;;;;5147196;27;20045;-77
2024/01/01 02:18:16;;;;;;;40.10;26.00;;;7.10;99.90;;;;;;5122982;27;20042;-77
2024/01/01 02:20:43;;;;;;;43.22;29.00;;;7.10;99.90;;;;;;5128919;27;20046;-78
2024/01/01 02:23:09;;;;;;;42.25;27.85;;;6.80;99.90;;;;;;5136583;27;20057;-77
2024/01/01 02:25:38;;;;;;;48.28;28.95;;;7.00;99.90;;;;;;5139496;27;20034;-76
2024/01/01 02:28:03;;;;;;;43.65;26.08;;;7.10;99.90;;;;;;5145998;27;20122;-78
2024/01/01 02:30:29;;;;;;;48.75;26.73;;;7.10;99.90;;;;;;5136418;27;20131;-79
2024/01/01 02:32:55;;;;;;;44.90;26.65;;;7.50;99.90;;;;;;5125284;27;20058;-78
2024/01/01 02:35:20;;;;;;;45.60;25.60;;;7.20;99.90;;;;;;5160971;27;20062;-78
2024/01/01 02:37:46;;;;;;;43.55;27.10;;;7.20;99.90;;;;;;5149065;27;20035;-77
2024/01/01 02:40:12;;;;;;;49.90;29.67;;;7.20;99.90;;;;;;5143858;27;20035;-77
2024/01/01 02:42:38;;;;;;;38.67;26.20;;;7.10;99.90;;;;;;5146531;27;20078;-79
2024/01/01 02:45:05;;;;;;;44.58;26.95;;;7.10;99.90;;;;;;5136782;27;20047;-78
2024/01/01 02:47:31;;;;;;;49.17;28.92;;;7.20;99.90;;;;;;5127605;27;20117;-78
2024/01/01 02:49:57;;;;;;;50.58;30.98;;;7.20;99.90;;;;;;5144453;27;20047;-79
2024/01/01 02:52:22;;;;;;;50.10;30.17;;;7.10;99.90;;;;;;5156465;27;20121;-80
2024/01/01 02:54:48;;;;;;;51.58;30.80;;;7.10;99.90;;;;;;5141524;27;20396;-80
2024/01/01 02:57:16;;;;;;;54.92;32.75;;;7.00;99.90;;;;;;5121010;28;20039;-79
2024/01/01 02:59:42;;;;;;;;;;;7.00;99.90;;;;;;5155752;27;20038;-80
2024/01/01 03:02:09;;;;;;;41.25;25.27;;;7.00;99.90;;;;;;5128733;27;19925;-81
2024/01/01 03:04:35;;;;;;;44.42;24.98;;;7.00;99.90;;;;;;5141301;28;20115;-80
2024/01/01 03:07:01;;;;;;;43.97;24.67;;;6.90;99.90;;;;;;5150776;27;20043;-82
2024/01/01 03:09:27;;;;;;;41.00;27.77;;;6.80;99.90;;;;;;5129563;28;20096;-83
2024/01/01 03:11:52;;;;;;;43.95;24.45;;;6.80;99.90;;;;;;5111659;27;20107;-83
2024/01/01 03:14:18;;;;;;;38.47;24.17;;;6.80;99.90;;;;;;5162165;27;20046;-81
2024/01/01 03:16:44;;;;;;;36.30;21.25;;;6.80;99.90;;;;;;5162619;27;20041;-82
2024/01/01 03:19:10;;;;;;;31.42;19.23;;;6.80;99.90;;;;;;5144216;27;20512;-81
2024/01/01 03:21:35;;;;;;;33.03;19.48;;;6.70;99.90;;;;;;5142356;27;20078;-80
2024/01/01 03:24:01;;;;;;;35.92;20.42;;;6.70;99.90;;;;;;5139852;27;20137;-81
2024/01/01 03:26:27;;;;;;;33.63;18.67;;;6.70;99.90;;;;;;5152528;27;20043;-79
2024/01/01 03:28:52;;;;;;;34.88;19.88;;;6.70;99.90;;;;;;5160091;27;20040;-82
2024/01/01 03:31:18;;;;;;;30.58;18.23;;;6.60;99.90;;;;;;5124179;27;20107;-81
2024/01/01 03:33:45;;;;;;;35.42;18.88;;;6.60;99.90;;;;;;5148036;27;20062;-78
2024/01/01 03:36:12;;;;;;;33.15;18.83;;;6.70;99.90;;;;;;5141647;27;20501;-79
2024/01/01 03:38:38;;;;;;;33.38;17.90;;;6.60;99.90;;;;;;5128832;28;20077;-79
2024/01/01 03:41:03;;;;;;;35.10;17.50;;;6.50;99.90;;;;;;5126999;27;20036;-80
2024/01/01 03:43:30;;;;;;;28.90;17.13;;;6.50;99.90;;;;;;5117574;27;20361;-81
2024/01/01 03:45:56;;;;;;;34.65;17.40;;;6.60;99.90;;;;;;5139517;27;20046;-79
2024/01/01 03:48:21;;;;;;;31.63;16.73;;;6.50;99.90;;;;;;5146971;27;20485;-79
2024/01/01 03:50:47;;;;;;;38.03;18.45;;;6.50;99.90;;;;;;5128502;27;20104;-81
2024/01/01 03:53:13;;;;;;;34.85;15.88;;;6.60;99.90;;;;;;5152717;27;20401;-81
2024/01/01 03:55:39;;;;;;;32.13;15.63;;;6.50;99.90;;;;;;5116524;27;20037;-80
2024/01/01 03:58:05;;;;;;;24.98;13.70;;;6.50;99.90;;;;;;5129761;27;20046;-80
2024/01/01 04:00:33;;;;;;;25.67;14.10;;;6.50;99.90;;;;;;5136095;27;20050;-80
2024/01/01 04:02:59;;;;;;;;;;;6.50;99.90;;;;;;5152768;27;20130;-81
2024/01/01 04:05:24;;;;;;;26.52;13.20;;;6.60;99.90;;;;;;5158361;27;19926;-80
2024/01/01 04:07:51;;;;;;;25.83;11.85;;;6.50;99.90;;;;;;5151695;27;20168;-79
2024/01/01 04:10:17;;;;;;;26.88;10.95;;;6.50;99.90;;;;;;5124806;27;20520;-80
2024/01/01 04:12:43;;;;;;;23.08;9.75;;;6.50;99.90;;;;;;5128799;27;20042;-79
2024/01/01 04:15:08;;;;;;;20.95;10.18;;;6.40;99.90;;;;;;5142343;27;20076;-79
2024/01/01 04:17:34;;;;;;;18.13;9.77;;;6.40;99.90;;;;;;5143518;27;20371;-78
2024/01/01 04:20:10;;;;;;;20.58;9.15;;;6.50;99.90;;;;;;5135578;27;20154;-80
2024/01/01 04:22:42;;;;;;;25.63;10.40;;;6.50;99.90;;;;;;5151679;27;20050;-79
2024/01/01 04:25:08;;;;;;;25.73;10.60;;;7.10;99.90;;;;;;5153513;27;20462;-79
2024/01/01 04:27:34;;;;;;;20.95;9.70;;;6.50;99.90;;;;;;5161326;27;20031;-79
2024/01/01 04:30:00;;;;;;;41.70;9.13;;;7.10;99.90;;;;;;5162346;27;20060;-80
2024/01/01 04:32:26;;;;;;;20.40;8.50;;;6.40;99.90;;;;;;5164279;27;20058;-81
2024/01/01 04:34:52;;;;;;;19.45;6.65;;;6.40;99.90;;;;;;5144738;27;20030;-82
2024/01/01 04:37:18;;;;;;;25.17;7.30;;;6.40;99.90;;;;;;5124167;27;20050;-81
2024/01/01 04:39:43;;;;;;;25.85;7.95;;;6.60;99.90;;;;;;5146569;27;20039;-82
2024/01/01 04:42:09;;;;;;;18.80;7.00;;;6.40;99.90;;;;;;5151237;27;20051;-82
2024/01/01 04:44:35;;;;;;;22.50;7.15;;;6.40;99.90;;;;;;5142049;27;20043;-81
2024/01/01 04:47:02;;;;;;;16.67;6.55;;;6.40;99.90;;;;;;5129026;27;20051;-81
2024/01/01 04:49:31;;;;;;;14.32;6.57;;;6.40;99.90;;;;;;5142143;27;20051;-81
2024/01/01 04:51:56;;;;;;;16.42;6.07;;;6.30;99.90;;;;;;5137733;27;20099;-81
2024/01/01 04:54:22;;;;;;;13.20;5.65;;;6.30;99.90;;;;;;5134279;27;20505;-81
2024/01/01 04:56:48;;;;;;;21.27;6.97;;;6.50;99.90;;;;;;5141993;27;20059;-80
2024/01/01 04:59:14;;;;;;;13.15;5.85;;;6.40;99.90;;;;;;5108726;27;20047;-81
2024/01/01 05:01:40;;;;;;;18.45;5.85;;;6.30;99.90;;;;;;5133896;27;20035;-80
2024/01/01 05:04:05;;;;;;;13.38;5.22;;;6.40;99.90;;;;;;5125151;27;20039;-81
2024/01/01 05:06:31;;;;;;;18.48;5.85;;;6.30;99.90;;;;;;5124282;27;20043;-81
2024/01/01 05:08:57;;;;;;;20.05;6.10;;;6.40;99.90;;;;;;5109551;27;20047;-81
2024/01/01 05:11:23;;;;;;;22.33;5.38;;;6.30;99.90;;;;;;5107517;27;20095;-80
2024/01/01 05:13:48;;;;;;;20.48;5.63;;;7.00;99.90;;;;;;5122075;27;20065;-80
2024/01/01 05:16:14;;;;;;;14.52;5.05;;;6.40;99.90;;;;;;5148418;27;20039;-80
2024/01/01 05:18:40;;;;;;;19.98;5.50;;;6.30;99.90;;;;;;5168078;27;20404;-79
2024/01/01 05:21:05;;;;;;;20.45;5.82;;;6.30;99.90;;;;;;5143167;27;20115;-80
2024/01/01 05:23:31;;;;;;;22.23;6.53;;;6.30;99.90;;;;;;5124577;27;20031;-79
2024/01/01 05:25:57;;;;;;;18.10;5.50;;;6.30;99.90;;;;;;5126483;27;20122;-79
2024/01/01 05:28:23;;;;;;;22.05;5.68;;;5.70;99.90;;;;;;5112893;27;20039;-80
2024/01/01 05:30:48;;;;;;;22.38;6.15;;;6.30;99.90;;;;;;5145899;27;20042;-79
2024/01/01 05:33:14;;;;;;;18.00;5.63;;;6.40;99.90;;;;;;5146538;27;20053;-80
2024/01/01 05:35:40;;;;;;;17.35;5.43;;;6.30;99.90;;;;;;5147430;27;20059;-82
2024/01/01 05:38:05;;;;;;;20.67;5.95;;;6.40;99.90;;;;;;5146708;27;20430;-80
2024/01/01 05:40:31;;;;;;;17.45;5.32;;;6.40;99.90;;;;;;5155882;27;20058;-79
2024/01/01 05:42:59;;;;;;;17.92;5.57;;;6.30;99.90;;;;;;5145195;27;20072;-79
2024/01/01 05:45:25;;;;;;;17.77;5.15;;;6.40;99.90;;;;;;5164611;27;20054;-79
2024/01/01 05:47:51;;;;;;;18.02;4.90;;;6.40;99.90;;;;;;5151817;27;20146;-80
2024/01/01 05:50:16;;;;;;;19.13;5.78;;;6.30;99.90;;;;;;5124734;27;20039;-78
2024/01/01 05:52:42;;;;;;;15.23;5.75;;;6.40;99.90;;;;;;5143006;27;20101;-79
2024/01/01 05:55:08;;;;;;;21.25;5.25;;;6.50;99.90;;;;;;5157195;27;20442;-79
2024/01/01 05:57:34;;;;;;;19.52;4.78;;;6.40;99.90;;;;;;5141048;27;20074;-78
2024/01/01 05:59:59;;;;;;;13.98;4.72;;;6.30;99.90;;;;;;5140669;27;20030;-77
2024/01/01 06:02:25;;;;;;;17.40;5.22;;;6.30;99.90;;;;;;5130302;27;20095;-78
2024/01/01 06:04:51;;;;;;;19.52;5.53;;;6.40;99.90;;;;;;5135367;27;20045;-78
2024/01/01 06:07:19;;;;;;;20.17;4.90;;;6.40;99.90;;;;;;5138306;27;20047;-79
2024/01/01 06:09:47;;;;;;;20.83;6.30;;;6.40;99.90;;;;;;5123017;27;20167;-81
2024/01/01 06:12:13;;;;;;;17.65;5.28;;;6.40;99.90;;;;;;5148444;27;20050;-78
2024/01/01 06:14:38;;;;;;;14.60;4.47;;;6.40;99.90;;;;;;5158486;27;20027;-79
2024/01/01 06:17:04;;;;;;;15.65;4.95;;;6.40;99.90;;;;;;5103123;27;20039;-79
2024/01/01 06:19:30;;;;;;;19.90;4.88;;;6.50;99.90;;;;;;5153704;27;20046;-80
2024/01/01 06:21:59;;;;;;;12.18;4.25;;;6.40;99.90;;;;;;5156526;27;20073;-77
2024/01/01 06:24:24;;;;;;;18.02;5.22;;;6.50;99.90;;;;;;5135532;27;20434;-78
2024/01/01 06:26:51;;;;;;;14.25;4.25;;;6.40;99.90;;;;;;5119486;27;20050;-79
2024/01/01 06:29:17;;;;;;;16.05;4.85;;;6.50;99.90;;;;;;5136682;27;20058;-77
2024/01/01 06:31:42;;;;;;;16.83;4.60;;;6.90;99.90;;;;;;5101538;27;20043;-79
2024/01/01 06:34:08;;;;;;;15.90;4.78;;;6.50;99.90;;;;;;5130035;27;20122;-78
2024/01/01 06:36:34;;;;;;;12.48;4.22;;;6.50;99.90;;;;;;5137529;27;20035;-78
2024/01/01 06:38:59;;;;;;;12.05;4.63;;;7.50;99.90;;;;;;5158186;27;20455;-77
2024/01/01 06:41:25;;;;;;;14.43;4.35;;;7.00;99.90;;;;;;5145909;27;20038;-80
2024/01/01 06:43:51;;;;;;;12.73;3.55;;;6.50;99.90;;;;;;5136933;27;20412;-79
2024/01/01 06:46:18;;;;;;;15.55;4.03;;;7.40;99.90;;;;;;5134433;27;20047;-77
2024/01/01 06:48:45;;;;;;;16.65;4.53;;;6.50;99.90;;;;;;5118819;27;20043;-78
2024/01/01 06:51:12;;;;;;;18.75;4.38;;;6.50;99.90;;;;;;5153198;27;20035;-78
2024/01/01 06:53:38;;;;;;;13.57;4.55;;;6.50;99.90;;;;;;5107905;28;20043;-78
2024/01/01 06:56:04;;;;;;;12.38;4.63;;;7.20;99.90;;;;;;5137681;27;20477;-78
2024/01/01 06:58:30;;;;;;;29.08;6.13;;;6.60;99.90;;;;;;5136544;27;20125;-78
2024/01/01 07:00:55;;;;;;;21.48;5.80;;;6.60;99.90;;;;;;5138462;27;20472;-79
2024/01/01 07:03:21;;;;;;;21.45;5.95;;;6.60;99.90;;;;;;5101661;27;20038;-78
2024/01/01 07:05:47;;;;;;;19.48;5.40;;;6.60;99.90;;;;;;5151676;27;20129;-79
2024/01/01 07:08:13;;;;;;;19.35;5.53;;;6.60;99.90;;;;;;5118723;28;20147;-78
2024/01/01 07:10:39;;;;;;;22.48;6.00;;;6.60;99.90;;;;;;5123696;28;20100;-78
2024/01/01 07:13:05;;;;;;;17.90;6.05;;;6.60;99.90;;;;;;5136214;28;20051;-78
2024/01/01 07:15:30;;;;;;;21.33;5.43;;;6.60;99.90;;;;;;5143511;27;20035;-79
2024/01/01 07:17:59;;;;;;;17.65;5.30;;;6.70;99.90;;;;;;5163205;27;20047;-80
2024/01/01 07:20:25;;;;;;;21.95;5.65;;;6.60;99.90;;;;;;5146007;27;20473;-80
2024/01/01 07:22:51;;;;;;;26.55;5.53;;;6.60;99.90;;;;;;5132230;27;20031;-79
2024/01/01 07:25:16;;;;;;;19.02;5.50;;;6.70;99.90;;;;;;5144935;27;20046;-79
2024/01/01 07:27:42;;;;;;;24.83;5.32;;;6.70;99.90;;;;;;5143136;27;20071;-80
2024/01/01 07:30:08;;;;;;;26.25;5.32;;;6.60;99.90;;;;;;5163008;27;20094;-80
2024/01/01 07:32:34;;;;;;;17.23;5.15;;;6.80;99.90;;;;;;5145241;27;20039;-80
2024/01/01 07:35:00;;;;;;;29.30;5.75;;;6.80;99.90;;;;;;5145173;27;20099;-78
2024/01/01 07:37:25;;;;;;;10.90;3.47;;;6.80;99.90;;;;;;5145344;27;20449;-79
2024/01/01 07:40:00;;;;;;;12.18;3.70;;;6.80;99.90;;;;;;5158036;27;20099;-80
2024/01/01 07:42:26;;;;;;;9.95;2.63;;;7.20;99.90;;;;;;5160724;27;20049;-79
2024/01/01 07:44:52;;;;;;;10.73;2.92;;;6.60;99.90;;;;;;5113334;27;20123;-78
2024/01/01 07:47:19;;;;;;;13.23;3.33;;;7.00;99.90;;;;;;5141992;27;20500;-79
2024/01/01 07:49:45;;;;;;;9.32;2.80;;;6.40;99.90;;;;;;5162344;27;20073;-78
2024/01/01 07:52:12;;;;;;;10.05;2.50;;;6.90;99.90;;;;;;5138769;27;20043;-79
2024/01/01 07:54:39;;;;;;;8.00;2.05;;;6.50;99.90;;;;;;5126567;27;20126;-80
2024/01/01 07:57:06;;;;;;;8.30;1.88;;;6.50;99.90;;;;;;5118970;27;20050;-79
2024/01/01 07:59:33;;;;;;;8.57;2.20;;;6.30;99.90;;;;;;5148778;27;20493;-78
2024/01/01 08:01:59;;;;;;;9.15;2.00;;;6.30;99.90;;;;;;5142423;27;20042;-80
2024/01/01 08:04:28;;;;;;;12.38;2.17;;;7.00;99.90;;;;;;5126382;27;20047;-78
2024/01/01 08:06:54;;;;;;;10.63;1.90;;;6.10;99.90;;;;;;5125950;27;20095;-81
2024/01/01 08:09:19;;;;;;;9.13;1.90;;;6.10;99.90;;;;;;5143082;27;20044;-78
2024/01/01 08:11:45;;;;;;;10.55;2.28;;;6.10;99.90;;;;;;5145110;27;20118;-78
2024/01/01 08:14:11;;;;;;;9.80;2.53;;;6.00;99.90;;;;;;5149085;27;20079;-80
2024/01/01 08:16:36;;;;;;;12.77;3.50;;;6.00;99.90;;;;;;5128779;27;20055;-79
2024/01/01 08:19:02;;;;;;;9.13;3.00;;;6.10;99.90;;;;;;5148350;27;20027;-80
2024/01/01 08:21:28;;;;;;;4.65;1.65;;;6.00;99.90;;;;;;5132286;27;20090;-81
2024/01/01 08:23:54;;;;;;;6.07;2.33;;;6.10;99.90;;;;;;5148546;27;20035;-80
2024/01/01 08:26:19;;;;;;;20.80;2.75;;;6.80;99.90;;;;;;5129424;27;20035;-80
2024/01/01 08:28:51;;;;;;;12.40;3.00;;;5.00;99.90;;;;;;5128941;27;20058;-80
2024/01/01 08:31:19;;;;;;;14.02;3.05;;;6.10;99.90;;;;;;5134369;27;20059;-78
2024/01/01 08:33:45;;;;;;;10.85;2.70;;;6.40;99.90;;;;;;5129115;27;20046;-78
2024/01/01 08:36:11;;;;;;;10.52;2.72;;;6.10;99.90;;;;;;5128001;27;20055;-78
2024/01/01 08:38:37;;;;;;;10.88;2.83;;;6.80;99.90;;;;;;5129566;27;20050;-79
2024/01/01 08:41:03;;;;;;;12.07;2.85;;;6.00;99.90;;;;;;5165709;27;20077;-79
2024/01/01 08:43:29;;;;;;;18.83;3.22;;;6.10;99.90;;;;;;5148783;27;20046;-81
2024/01/01 08:46:00;;;;;;;11.02;3.22;;;6.10;99.90;;;;;;5160104;27;20050;-79
2024/01/01 08:48:26;;;;;;;11.13;3.00;;;5.30;99.90;;;;;;5148611;27;20050;-80
2024/01/01 08:50:52;;;;;;;15.02;3.70;;;6.10;99.90;;;;;;5147253;27;20036;-83
2024/01/01 08:53:17;;;;;;;13.07;3.33;;;6.10;99.90;;;;;;5149093;27;20061;-81
2024/01/01 08:55:43;;;;;;;10.52;2.83;;;6.20;99.90;;;;;;5133732;27;20046;-82
2024/01/01 08:58:09;;;;;;;19.38;3.17;;;6.20;99.90;;;;;;5148374;27;20031;-82
2024/01/01 09:00:35;;;;;;;11.18;2.80;;;6.20;99.90;;;;;;5135522;27;20086;-82
2024/01/01 09:03:01;;;;;;;14.43;3.22;;;5.70;99.90;;;;;;5128256;27;20069;-82
2024/01/01 09:05:27;;;;;;;15.93;3.58;;;6.20;99.90;;;;;;5106747;27;20051;-80
2024/01/01 09:07:52;;;;;;;15.77;3.15;;;6.20;99.90;;;;;;5122048;27;20039;-80
2024/01/01 09:10:18;;;;;;;16.08;3.38;;;6.30;99.90;;;;;;5120627;27;20046;-80
2024/01/01 09:12:44;;;;;;;13.20;2.63;;;6.30;99.90;;;;;;5141827;27;20035;-80
2024/01/01 09:15:10;;;;;;;8.00;2.40;;;6.20;99.90;;;;;;5139866;27;20047;-79
2024/01/01 09:17:35;;;;;;;10.48;2.20;;;6.30;99.90;;;;;;5143222;27;20054;-80
2024/01/01 09:20:03;;;;;;;7.63;1.98;;;6.20;99.90;;;;;;5141284;27;20043;-80
2024/01/01 09:22:28;;;;;;;9.57;2.30;;;6.20;99.90;;;;;;5123063;27;20054;-79
2024/01/01 09:24:54;;;;;;;7.80;2.00;;;6.20;99.90;;;;;;5127603;27;20043;-79
2024/01/01 09:27:20;;;;;;;10.85;2.67;;;6.20;99.90;;;;;;5141578;27;20519;-80
2024/01/01 09:29:45;;;;;;;9.02;2.58;;;6.70;99.90;;;;;;5123934;27;20031;-78
2024/01/01 09:32:11;;;;;;;11.20;2.92;;;6.20;99.90;;;;;;5133522;27;20084;-79
2024/01/01 09:34:37;;;;;;;18.33;3.25;;;6.20;99.90;;;;;;5131619;27;20034;-78
2024/01/01 09:37:02;;;;;;;9.95;2.88;;;6.20;99.90;;;;;;5156408;27;20099;-80
2024/01/01 09:39:28;;;;;;;11.60;2.72;;;6.10;99.90;;;;;;5153497;27;20066;-79
2024/01/01 09:41:57;;;;;;;9.75;2.30;;;6.10;99.90;;;;;;5139753;27;20051;-80
2024/01/01 09:44:23;;;;;;;10.15;2.53;;;6.10;99.90;;;;;;5114938;27;20612;-80
2024/01/01 09:46:49;;;;;;;6.72;1.95;;;6.20;99.90;;;;;;5139121;27;20043;-79
2024/01/01 09:49:15;;;;;;;8.30;2.30;;;6.10;99.90;;;;;;5106419;27;20039;-79
2024/01/01 09:51:40;;;;;;;11.90;2.60;;;6.00;99.90;;;;;;5116567;27;20049;-80
2024/01/01 09:54:09;;;;;;;4.80;1.80;;;6.20;99.90;;;;;;5160017;27;20053;-78
2024/01/01 09:56:35;;;;;;;7.00;2.28;;;6.20;99.90;;;;;;5161559;27;20035;-78
2024/01/01 09:59:02;;;;;;;9.57;2.83;;;6.20;99.90;;;;;;5155759;27;20074;-79
2024/01/01 10:01:30;;;;;;;7.72;2.83;;;6.20;99.90;;;;;;5134032;27;20122;-80
2024/01/01 10:04:01;;;;;;;14.77;2.83;;;6.70;99.90;;;;;;5113256;27;20043;-82
2024/01/01 10:06:27;;;;;;;8.35;2.20;;;6.20;99.90;;;;;;5147621;27;20527;-79
2024/01/01 10:09:07;;;;;;;9.80;2.20;;;6.30;99.90;;;;;;5130233;27;20047;-80
2024/01/01 10:11:33;;;;;;;8.07;2.35;;;6.80;99.90;;;;;;5143073;27;20488;-80
2024/01/01 10:14:09;;;;;;;7.88;2.75;;;6.30;99.90;;;;;;5129774;27;20126;-80
2024/01/01 10:16:38;;;;;;;8.63;2.40;;;6.30;99.90;;;;;;5132272;27;20058;-80
2024/01/01 10:19:04;;;;;;;12.55;3.05;;;6.40;99.90;;;;;;5123344;27;20039;-80
2024/01/01 10:21:32;;;;;;;14.43;2.92;;;6.40;99.90;;;;;;5124309;27;20039;-80
2024/01/01 10:24:10;;;;;;;13.32;2.75;;;6.30;99.90;;;;;;5139462;27;20130;-78
2024/01/01 10:26:39;;;;;;;16.48;3.33;;;6.30;99.90;;;;;;5127625;27;20381;-78
2024/01/01 10:29:06;;;;;;;14.57;2.72;;;6.50;99.90;;;;;;5128372;27;20046;-78
2024/01/01 10:31:32;;;;;;;17.58;3.78;;;6.50;99.90;;;;;;5118749;27;20054;-77
2024/01/01 10:33:59;;;;;;;14.20;3.47;;;6.60;99.90;;;;;;5136799;27;20046;-78
2024/01/01 10:36:25;;;;;;;13.55;3.92;;;6.50;99.90;;;;;;5136660;27;20039;-78
2024/01/01 10:38:53;;;;;;;18.90;4.47;;;6.70;99.90;;;;;;5129020;27;20046;-78
2024/01/01 10:41:19;;;;;;;19.75;4.18;;;6.70;99.90;;;;;;5142740;27;20035;-78
2024/01/01 10:43:50;;;;;;;19.50;4.03;;;6.70;99.90;;;;;;5137378;27;20055;-78
2024/01/01 10:46:17;;;;;;;19.85;3.58;;;6.90;99.90;;;;;;5155300;27;20110;-78
2024/01/01 10:48:45;;;;;;;29.10;5.07;;;6.90;99.90;;;;;;5139487;27;20446;-78
2024/01/01 10:51:56;;;;;;;20.48;5.07;;;7.00;99.90;;;;;;5137948;27;20070;-78
2024/01/01 10:54:36;;;;;;;27.90;5.70;;;6.90;99.90;;;;;;5111364;27;20053;-79
2024/01/01 10:57:26;;;;;;;22.50;5.00;;;7.00;99.90;;;;;;5128233;27;20035;-77
2024/01/01 11:00:01;;;;;;;28.83;5.45;;;7.20;99.90;;;;;;5116137;27;20476;-77
2024/01/01 11:02:27;;;;;;;28.77;4.57;;;7.10;99.90;;;;;;5153564;27;20042;-78
2024/01/01 11:05:10;;;;;;;29.48;4.25;;;7.20;99.90;;;;;;5121821;27;20043;-78
2024/01/01 11:07:54;;;;;;;27.50;4.43;;;7.10;99.90;;;;;;5149886;27;20038;-77
2024/01/01 11:10:44;;;;;;;34.10;4.75;;;7.20;99.90;;;;;;5140955;27;20034;-78
2024/01/01 11:13:30;;;;;;;25.20;4.97;;;7.30;99.90;;;;;;5160251;27;20054;-78
2024/01/01 11:16:05;;;;;;;23.38;4.68;;;7.30;99.90;;;;;;5142286;27;20117;-78
2024/01/01 11:18:35;;;;;;;23.85;4.47;;;7.20;99.90;;;;;;5155616;27;20046;-78
2024/01/01 11:21:02;;;;;;;20.67;4.05;;;7.20;99.90;;;;;;5128263;27;20086;-79
2024/01/01 11:23:43;;;;;;;18.55;3.75;;;6.90;99.90;;;;;;5139542;27;20070;-79
2024/01/01 11:26:35;;;;;;;23.00;4.30;;;7.30;99.90;;;;;;5151744;27;20038;-79
2024/01/01 11:29:27;;;;;;;25.45;4.10;;;7.20;99.90;;;;;;5159002;27;20117;-78
2024/01/01 11:32:03;;;;;;;19.05;3.47;;;7.10;99.90;;;;;;5155807;27;20046;-77
2024/01/01 11:34:28;;;;;;;20.70;3.70;;;7.20;99.90;;;;;;5138537;27;20492;-79
2024/01/01 11:36:54;;;;;;;29.25;4.43;;;7.10;99.90;;;;;;5159247;27;20042;-78
2024/01/01 11:39:24;;;;;;;23.60;4.50;;;7.20;99.90;;;;;;5148345;27;20046;-78
2024/01/01 11:41:50;;;;;;;21.38;4.00;;;7.50;99.90;;;;;;5145216;27;20059;-78
2024/01/01 11:44:18;;;;;;;26.48;4.30;;;7.10;99.90;;;;;;5115599;28;20134;-78
2024/01/01 11:46:46;;;;;;;32.10;5.30;;;7.10;99.90;;;;;;5127528;28;20114;-79
2024/01/01 11:49:12;;;;;;;20.98;3.90;;;7.10;99.90;;;;;;5144538;28;20435;-79
2024/01/01 11:51:54;;;;;;;17.88;3.13;;;8.10;99.90;;;;;;5138987;28;20050;-78
2024/01/01 11:54:20;;;;;;;16.75;3.13;;;7.10;99.90;;;;;;5115778;28;20096;-79
2024/01/01 11:56:48;;;;;;;13.80;3.08;;;7.00;99.90;;;;;;5133898;28;20027;-79
2024/01/01 11:59:15;;;;;;;12.75;3.45;;;7.00;99.90;;;;;;5159713;27;20042;-79
2024/01/01 12:01:43;;;;;;;13.52;3.38;;;7.00;99.90;;;;;;5171941;27;20169;-79
2024/01/01 12:04:09;;;;;;;14.60;3.37;;;7.00;99.90;;;;;;5156651;27;20069;-79
2024/01/01 12:06:35;;;;;;;18.40;3.25;;;7.10;99.90;;;;;;5168265;27;20019;-80
2024/01/01 12:09:11;;;;;;;33.53;5.03;;;7.10;99.90;;;;;;5150973;27;20047;-78
2024/01/01 12:11:42;;;;;;;21.48;3.97;;;7.20;99.90;;;;;;5138483;27;20057;-79
2024/01/01 12:14:08;;;;;;;25.00;4.95;;;7.30;99.90;;;;;;5161359;27;20049;-79
2024/01/01 12:16:37;;;;;;;27.20;4.68;;;7.40;99.90;;;;;;5169623;27;20049;-77
2024/01/01 12:19:06;;;;;;;17.95;3.58;;;7.30;99.90;;;;;;5160855;27;20042;-78
2024/01/01 12:21:43;;;;;;;25.30;4.72;;;7.60;99.90;;;;;;5138498;27;20414;-78
2024/01/01 12:24:21;;;;;;;27.75;4.80;;;8.00;99.90;;;;;;5143315;27;20100;-78
2024/01/01 12:26:50;;;;;;;21.33;3.92;;;7.70;99.90;;;;;;5145767;27;20054;-77
2024/01/01 12:29:20;;;;;;;20.33;3.55;;;7.60;99.90;;;;;;5158190;27;20042;-77
2024/01/01 12:31:48;;;;;;;20.10;3.88;;;7.60;99.90;;;;;;5157636;27;20085;-77
2024/01/01 12:34:18;;;;;;;26.57;4.23;;;7.60;99.90;;;;;;5145417;27;20066;-77
2024/01/01 12:36:47;;;;;;;21.92;4.25;;;7.60;99.90;;;;;;5143010;27;20046;-77
2024/01/01 12:39:16;;;;;;;24.30;4.50;;;7.90;99.90;;;;;;5158189;27;20049;-78
2024/01/01 12:41:42;;;;;;;22.90;4.05;;;7.90;99.90;;;;;;5163910;27;20165;-78
2024/01/01 12:44:08;;;;;;;25.38;4.22;;;7.90;99.90;;;;;;5163817;27;20052;-78
2024/01/01 12:46:34;;;;;;;21.45;3.15;;;8.00;99.90;;;;;;5153881;27;20099;-78